createdAt,value
2018-04-15T00:00:37.430Z,24.40
2018-04-15T00:01:37.359Z,24.40
2018-04-15T00:02:37.433Z,24.40
2018-04-15T00:03:37.432Z,24.40
2018-04-15T00:04:37.436Z,23.50
2018-04-15T00:05:37.431Z,23.50
2018-04-15T00:06:37.440Z,23.50
2018-04-15T00:07:37.357Z,23.50
2018-04-15T00:08:37.456Z,23.50
2018-04-15T00:09:37.411Z,23.50
2018-04-15T00:10:37.355Z,23.50
2018-04-15T00:11:37.434Z,23.50
2018-04-15T00:12:37.440Z,23.50
2018-04-15T00:13:37.356Z,23.50
2018-04-15T00:14:37.415Z,23.70
2018-04-15T00:15:37.412Z,23.70
2018-04-15T00:16:37.365Z,23.70
2018-04-15T00:17:37.417Z,23.70
2018-04-15T00:18:37.499Z,23.70
2018-04-15T00:19:37.437Z,23.70
2018-04-15T00:20:37.440Z,23.70
2018-04-15T00:21:37.444Z,23.70
2018-04-15T00:22:37.368Z,23.70
2018-04-15T00:23:37.456Z,23.70
2018-04-15T00:24:37.436Z,27.50
2018-04-15T00:25:37.364Z,27.50
2018-04-15T00:26:37.368Z,27.50
2018-04-15T00:27:37.370Z,27.50
2018-04-15T00:28:37.444Z,27.50
2018-04-15T00:29:37.370Z,27.50
2018-04-15T00:30:37.371Z,27.50
2018-04-15T00:31:37.442Z,27.50
2018-04-15T00:32:37.445Z,27.50
2018-04-15T00:33:37.370Z,27.50
2018-04-15T00:34:37.452Z,23.70
2018-04-15T00:35:37.384Z,23.70
2018-04-15T00:36:37.381Z,23.70
2018-04-15T00:37:37.460Z,23.70
2018-04-15T00:38:37.460Z,23.70
2018-04-15T00:39:37.458Z,23.70
2018-04-15T00:40:37.458Z,23.70
2018-04-15T00:41:37.460Z,23.70
2018-04-15T00:42:37.384Z,23.70
2018-04-15T00:43:37.466Z,23.70
2018-04-15T00:44:37.456Z,21.70
2018-04-15T00:45:37.430Z,21.70
2018-04-15T00:46:37.381Z,21.70
2018-04-15T00:47:37.521Z,21.70
2018-04-15T00:48:37.455Z,21.70
2018-04-15T00:49:37.455Z,21.70
2018-04-15T00:50:37.491Z,21.70
2018-04-15T00:51:37.458Z,21.70
2018-04-15T00:52:37.464Z,21.70
2018-04-15T00:53:37.498Z,21.70
2018-04-15T00:54:37.434Z,20.80
2018-04-15T00:55:37.493Z,20.80
2018-04-15T00:56:37.381Z,20.80
2018-04-15T00:57:37.467Z,20.80
2018-04-15T00:58:37.483Z,20.80
2018-04-15T00:59:37.493Z,20.80
2018-04-15T01:00:37.431Z,20.80
2018-04-15T01:01:37.473Z,20.80
2018-04-15T01:02:37.392Z,20.80
2018-04-15T01:03:37.391Z,20.80
2018-04-15T01:04:37.400Z,25.99
2018-04-15T01:05:37.398Z,25.99
2018-04-15T01:06:37.401Z,25.99
2018-04-15T01:07:37.402Z,25.99
2018-04-15T01:08:37.515Z,25.99
2018-04-15T01:09:37.445Z,25.99
2018-04-15T01:10:37.405Z,25.99
2018-04-15T01:11:37.477Z,25.99
2018-04-15T01:12:37.499Z,25.99
2018-04-15T01:13:37.408Z,25.99
2018-04-15T01:14:37.425Z,23.60
2018-04-15T01:15:37.416Z,23.60
2018-04-15T01:16:37.371Z,23.60
2018-04-15T01:17:37.425Z,23.60
2018-04-15T01:18:37.483Z,23.60
2018-04-15T01:19:37.482Z,23.60
2018-04-15T01:20:37.409Z,23.60
2018-04-15T01:21:37.411Z,23.60
2018-04-15T01:22:37.413Z,23.60
2018-04-15T01:23:37.486Z,23.60
2018-04-15T01:24:37.475Z,23.20
2018-04-15T01:25:37.409Z,23.20
2018-04-15T01:26:37.365Z,23.20
2018-04-15T01:27:37.405Z,23.20
2018-04-15T01:28:37.478Z,23.20
2018-04-15T01:29:37.408Z,23.20
2018-04-15T01:30:37.477Z,23.20
2018-04-15T01:31:37.407Z,23.20
2018-04-15T01:32:37.409Z,23.20
2018-04-15T01:33:37.480Z,23.20
2018-04-15T01:34:37.378Z,22.00
2018-04-15T01:35:37.518Z,22.00
2018-04-15T01:36:37.489Z,22.00
2018-04-15T01:37:37.422Z,22.00
2018-04-15T01:38:37.495Z,22.00
2018-04-15T01:39:37.449Z,22.00
2018-04-15T01:40:37.499Z,22.00
2018-04-15T01:41:37.437Z,22.00
2018-04-15T01:42:37.384Z,22.00
2018-04-15T01:43:37.423Z,22.00
2018-04-15T01:44:37.429Z,22.80
2018-04-15T01:45:37.427Z,22.80
2018-04-15T01:46:37.427Z,22.80
2018-04-15T01:47:37.427Z,22.80
2018-04-15T01:48:37.444Z,22.80
2018-04-15T01:49:37.506Z,22.80
2018-04-15T01:50:37.501Z,22.80
2018-04-15T01:51:37.508Z,22.80
2018-04-15T01:52:37.432Z,22.80
2018-04-15T01:53:37.628Z,22.80
2018-04-15T01:54:37.503Z,23.30
2018-04-15T01:55:37.445Z,23.30
2018-04-15T01:56:37.507Z,23.30
2018-04-15T01:57:37.434Z,23.30
2018-04-15T01:58:37.510Z,23.30
2018-04-15T01:59:37.478Z,23.30
2018-04-15T02:00:37.606Z,23.30
2018-04-15T02:01:37.439Z,23.30
2018-04-15T02:02:37.453Z,23.30
2018-04-15T02:03:37.511Z,23.30
2018-04-15T02:04:37.506Z,21.20
2018-04-15T02:05:37.506Z,21.20
2018-04-15T02:06:37.503Z,21.20
2018-04-15T02:07:37.447Z,21.20
2018-04-15T02:08:37.486Z,21.20
2018-04-15T02:09:37.445Z,21.20
2018-04-15T02:10:37.511Z,21.20
2018-04-15T02:11:37.448Z,21.20
2018-04-15T02:12:37.509Z,21.20
2018-04-15T02:13:37.449Z,21.20
2018-04-15T02:14:37.401Z,22.40
2018-04-15T02:15:37.533Z,22.40
2018-04-15T02:16:37.444Z,22.40
2018-04-15T02:17:37.445Z,22.40
2018-04-15T02:18:37.521Z,22.40
2018-04-15T02:19:37.544Z,22.40
2018-04-15T02:20:37.449Z,22.40
2018-04-15T02:21:37.573Z,22.40
2018-04-15T02:22:37.522Z,22.40
2018-04-15T02:23:37.451Z,22.40
2018-04-15T02:24:37.449Z,21.20
2018-04-15T02:25:37.453Z,21.20
2018-04-15T02:26:37.530Z,21.20
2018-04-15T02:27:37.454Z,21.20
2018-04-15T02:28:37.529Z,21.20
2018-04-15T02:29:37.461Z,21.20
2018-04-15T02:30:37.458Z,21.20
2018-04-15T02:31:37.547Z,21.20
2018-04-15T02:32:37.453Z,21.20
2018-04-15T02:33:37.458Z,21.20
2018-04-15T02:34:37.565Z,20.70
2018-04-15T02:35:37.530Z,20.70
2018-04-15T02:36:37.584Z,20.70
2018-04-15T02:37:37.456Z,20.70
2018-04-15T02:38:37.568Z,20.70
2018-04-15T02:39:37.527Z,20.70
2018-04-15T02:40:37.527Z,20.70
2018-04-15T02:41:37.562Z,20.70
2018-04-15T02:42:37.540Z,20.70
2018-04-15T02:43:37.562Z,20.70
2018-04-15T02:44:37.527Z,21.00
2018-04-15T02:45:37.461Z,21.00
2018-04-15T02:46:37.461Z,21.00
2018-04-15T02:47:37.546Z,21.00
2018-04-15T02:48:37.463Z,21.00
2018-04-15T02:49:37.542Z,21.00
2018-04-15T02:50:37.461Z,21.00
2018-04-15T02:51:37.531Z,21.00
2018-04-15T02:52:37.459Z,21.00
2018-04-15T02:53:37.531Z,21.00
2018-04-15T02:54:37.540Z,20.10
2018-04-15T02:55:37.477Z,20.10
2018-04-15T02:56:37.442Z,20.10
2018-04-15T02:57:37.564Z,20.10
2018-04-15T02:58:37.571Z,20.10
2018-04-15T02:59:37.540Z,20.10
2018-04-15T03:00:37.555Z,20.10
2018-04-15T03:01:37.545Z,20.10
2018-04-15T03:02:37.611Z,20.10
2018-04-15T03:03:37.587Z,20.10
2018-04-15T03:04:37.554Z,21.60
2018-04-15T03:05:37.480Z,21.60
2018-04-15T03:06:37.556Z,21.60
2018-04-15T03:07:37.554Z,21.60
2018-04-15T03:08:37.497Z,21.60
2018-04-15T03:09:37.554Z,21.60
2018-04-15T03:10:37.557Z,21.60
2018-04-15T03:11:37.479Z,21.60
2018-04-15T03:12:37.556Z,21.60
2018-04-15T03:13:37.499Z,21.60
2018-04-15T03:14:37.547Z,23.80
2018-04-15T03:15:37.581Z,23.80
2018-04-15T03:16:37.529Z,23.80
2018-04-15T03:17:37.612Z,23.80
2018-04-15T03:18:37.555Z,23.80
2018-04-15T03:19:37.552Z,23.80
2018-04-15T03:20:37.536Z,23.80
2018-04-15T03:21:37.553Z,23.80
2018-04-15T03:22:37.527Z,23.80
2018-04-15T03:23:37.482Z,23.80
2018-04-15T03:24:37.581Z,21.80
2018-04-15T03:25:37.592Z,21.80
2018-04-15T03:26:37.556Z,21.80
2018-04-15T03:27:37.524Z,21.80
2018-04-15T03:28:37.496Z,21.80
2018-04-15T03:29:37.465Z,21.80
2018-04-15T03:30:37.484Z,21.80
2018-04-15T03:31:37.530Z,21.80
2018-04-15T03:32:37.590Z,21.80
2018-04-15T03:33:37.528Z,21.80
2018-04-15T03:34:37.623Z,25.40
2018-04-15T03:35:37.534Z,25.40
2018-04-15T03:36:37.545Z,25.40
2018-04-15T03:37:37.626Z,25.40
2018-04-15T03:38:37.534Z,25.40
2018-04-15T03:39:37.602Z,25.40
2018-04-15T03:40:37.628Z,25.40
2018-04-15T03:41:37.595Z,25.40
2018-04-15T03:42:37.473Z,25.40
2018-04-15T03:43:37.698Z,25.40
2018-04-15T03:44:37.575Z,25.00
2018-04-15T03:45:37.575Z,25.00
2018-04-15T03:46:37.500Z,25.00
2018-04-15T03:47:37.511Z,25.00
2018-04-15T03:48:37.579Z,25.00
2018-04-15T03:49:37.502Z,25.00
2018-04-15T03:50:37.579Z,25.00
2018-04-15T03:51:37.550Z,25.00
2018-04-15T03:52:37.511Z,25.00
2018-04-15T03:53:37.507Z,25.00
2018-04-15T03:54:37.507Z,24.70
2018-04-15T03:55:37.548Z,24.70
2018-04-15T03:56:37.507Z,24.70
2018-04-15T03:57:37.590Z,24.70
2018-04-15T03:58:37.632Z,24.70
2018-04-15T03:59:37.647Z,24.70
2018-04-15T04:00:37.585Z,24.70
2018-04-15T04:01:37.527Z,24.70
2018-04-15T04:02:37.584Z,24.70
2018-04-15T04:03:37.524Z,24.70
2018-04-15T04:04:37.610Z,24.80
2018-04-15T04:05:37.607Z,24.80
2018-04-15T04:06:37.582Z,24.80
2018-04-15T04:07:37.641Z,24.80
2018-04-15T04:08:37.645Z,24.80
2018-04-15T04:09:37.644Z,24.80
2018-04-15T04:10:37.643Z,24.80
2018-04-15T04:11:37.585Z,24.80
2018-04-15T04:12:37.649Z,24.80
2018-04-15T04:13:37.608Z,24.80
2018-04-15T04:14:37.714Z,24.70
2018-04-15T04:15:37.554Z,24.70
2018-04-15T04:16:37.605Z,24.70
2018-04-15T04:17:37.614Z,24.70
2018-04-15T04:18:37.525Z,24.70
2018-04-15T04:19:37.523Z,24.70
2018-04-15T04:20:37.591Z,24.70
2018-04-15T04:21:37.618Z,24.70
2018-04-15T04:22:37.592Z,24.70
2018-04-15T04:23:37.594Z,24.70
2018-04-15T04:24:37.606Z,30.90
2018-04-15T04:25:37.526Z,30.90
2018-04-15T04:26:37.603Z,30.90
2018-04-15T04:27:37.498Z,30.90
2018-04-15T04:28:37.531Z,30.90
2018-04-15T04:29:37.601Z,30.90
2018-04-15T04:30:37.529Z,30.90
2018-04-15T04:31:37.603Z,30.90
2018-04-15T04:32:37.533Z,30.90
2018-04-15T04:33:37.529Z,30.90
2018-04-15T04:34:37.504Z,30.99
2018-04-15T04:35:37.666Z,30.99
2018-04-15T04:36:37.518Z,30.99
2018-04-15T04:37:37.640Z,30.99
2018-04-15T04:38:37.663Z,30.99
2018-04-15T04:39:37.611Z,30.99
2018-04-15T04:40:37.609Z,30.99
2018-04-15T04:41:37.582Z,30.99
2018-04-15T04:42:37.628Z,30.99
2018-04-15T04:43:37.568Z,30.99
2018-04-15T04:44:37.557Z,28.00
2018-04-15T04:45:37.529Z,28.00
2018-04-15T04:46:37.500Z,28.00
2018-04-15T04:47:37.576Z,28.00
2018-04-15T04:48:37.470Z,28.00
2018-04-15T04:49:37.530Z,28.00
2018-04-15T04:50:37.570Z,28.00
2018-04-15T04:51:37.475Z,28.00
2018-04-15T04:52:37.473Z,28.00
2018-04-15T04:53:37.566Z,28.00
2018-04-15T04:54:37.560Z,27.70
2018-04-15T04:55:37.621Z,27.70
2018-04-15T04:56:37.621Z,27.70
2018-04-15T04:57:37.512Z,27.70
2018-04-15T04:58:37.549Z,27.70
2018-04-15T04:59:37.634Z,27.70
2018-04-15T05:00:37.510Z,27.70
2018-04-15T05:01:37.578Z,27.70
2018-04-15T05:02:37.626Z,27.70
2018-04-15T05:03:37.551Z,27.70
2018-04-15T05:04:37.596Z,28.90
2018-04-15T05:05:37.650Z,28.90
2018-04-15T05:06:37.547Z,28.90
2018-04-15T05:07:37.608Z,28.90
2018-04-15T05:08:37.541Z,28.90
2018-04-15T05:09:37.598Z,28.90
2018-04-15T05:10:37.528Z,28.90
2018-04-15T05:11:37.546Z,28.90
2018-04-15T05:12:37.681Z,28.90
2018-04-15T05:13:37.627Z,28.90
2018-04-15T05:14:37.557Z,29.50
2018-04-15T05:15:37.527Z,29.50
2018-04-15T05:16:37.618Z,29.50
2018-04-15T05:17:37.532Z,29.50
2018-04-15T05:18:37.520Z,29.50
2018-04-15T05:19:37.608Z,29.50
2018-04-15T05:20:37.568Z,29.50
2018-04-15T05:21:37.564Z,29.50
2018-04-15T05:22:37.529Z,29.50
2018-04-15T05:23:37.525Z,29.50
2018-04-15T05:24:37.615Z,29.50
2018-04-15T05:25:37.609Z,29.30
2018-04-15T05:26:37.598Z,29.30
2018-04-15T05:27:37.594Z,29.30
2018-04-15T05:28:37.632Z,29.30
2018-04-15T05:29:37.635Z,29.30
2018-04-15T05:30:37.664Z,29.30
2018-04-15T05:31:37.633Z,29.30
2018-04-15T05:32:37.668Z,29.30
2018-04-15T05:33:37.616Z,29.30
2018-04-15T05:34:37.653Z,29.30
2018-04-15T05:35:37.667Z,27.20
2018-04-15T05:36:37.668Z,27.20
2018-04-15T05:37:37.677Z,27.20
2018-04-15T05:38:37.670Z,27.20
2018-04-15T05:39:37.614Z,27.20
2018-04-15T05:40:37.582Z,27.20
2018-04-15T05:41:37.614Z,27.20
2018-04-15T05:42:37.546Z,27.20
2018-04-15T05:43:37.585Z,27.20
2018-04-15T05:44:37.620Z,27.20
2018-04-15T05:45:37.625Z,30.50
2018-04-15T05:46:37.672Z,30.50
2018-04-15T05:47:37.665Z,30.50
2018-04-15T05:48:37.680Z,30.50
2018-04-15T05:49:37.643Z,30.50
2018-04-15T05:50:37.570Z,30.50
2018-04-15T05:51:37.674Z,30.50
2018-04-15T05:52:37.683Z,30.50
2018-04-15T05:53:37.564Z,30.50
2018-04-15T05:54:37.605Z,30.50
2018-04-15T05:55:37.641Z,31.80
2018-04-15T05:56:37.691Z,31.80
2018-04-15T05:57:37.555Z,31.80
2018-04-15T05:58:37.620Z,31.80
2018-04-15T05:59:37.631Z,31.80
2018-04-15T06:00:37.674Z,31.80
2018-04-15T06:01:37.693Z,31.80
2018-04-15T06:02:37.670Z,31.80
2018-04-15T06:03:37.628Z,31.80
2018-04-15T06:04:37.682Z,31.80
2018-04-15T06:05:37.660Z,30.40
2018-04-15T06:06:37.659Z,30.40
2018-04-15T06:07:37.589Z,30.40
2018-04-15T06:08:37.668Z,30.40
2018-04-15T06:09:37.654Z,30.40
2018-04-15T06:10:37.590Z,30.40
2018-04-15T06:11:37.591Z,30.40
2018-04-15T06:12:37.687Z,30.40
2018-04-15T06:13:37.592Z,30.40
2018-04-15T06:14:37.665Z,30.40
2018-04-15T06:15:37.597Z,32.50
2018-04-15T06:16:37.691Z,32.50
2018-04-15T06:17:37.726Z,32.50
2018-04-15T06:18:37.704Z,32.50
2018-04-15T06:19:37.698Z,32.50
2018-04-15T06:20:37.583Z,32.50
2018-04-15T06:21:37.709Z,32.50
2018-04-15T06:22:37.639Z,32.50
2018-04-15T06:23:37.648Z,32.50
2018-04-15T06:24:37.637Z,32.50
2018-04-15T06:25:37.587Z,32.99
2018-04-15T06:26:37.632Z,32.99
2018-04-15T06:27:37.647Z,32.99
2018-04-15T06:28:37.648Z,32.99
2018-04-15T06:29:37.611Z,32.99
2018-04-15T06:30:37.594Z,32.99
2018-04-15T06:31:37.597Z,32.99
2018-04-15T06:32:37.718Z,32.99
2018-04-15T06:33:37.771Z,32.99
2018-04-15T06:34:37.623Z,32.99
2018-04-15T06:35:37.713Z,34.50
2018-04-15T06:36:37.719Z,34.50
2018-04-15T06:37:37.640Z,34.50
2018-04-15T06:38:37.718Z,34.50
2018-04-15T06:39:37.706Z,34.50
2018-04-15T06:40:37.713Z,34.50
2018-04-15T06:41:37.677Z,34.50
2018-04-15T06:42:37.700Z,34.50
2018-04-15T06:43:37.689Z,34.50
2018-04-15T06:44:37.695Z,34.50
2018-04-15T06:45:37.711Z,34.70
2018-04-15T06:46:37.684Z,34.70
2018-04-15T06:47:37.656Z,34.70
2018-04-15T06:48:37.602Z,34.70
2018-04-15T06:49:37.663Z,34.70
2018-04-15T06:50:37.684Z,34.70
2018-04-15T06:51:37.666Z,34.70
2018-04-15T06:52:37.722Z,34.70
2018-04-15T06:53:37.681Z,34.70
2018-04-15T06:54:37.625Z,34.70
2018-04-15T06:55:37.658Z,31.80
2018-04-15T06:56:37.698Z,31.80
2018-04-15T06:57:37.625Z,31.80
2018-04-15T06:58:37.719Z,31.80
2018-04-15T06:59:37.699Z,31.80
2018-04-15T07:00:37.627Z,31.80
2018-04-15T07:01:37.699Z,31.80
2018-04-15T07:02:37.663Z,31.80
2018-04-15T07:03:37.689Z,31.80
2018-04-15T07:04:37.655Z,31.80
2018-04-15T07:05:37.696Z,30.40
2018-04-15T07:06:37.702Z,30.40
2018-04-15T07:07:37.625Z,30.40
2018-04-15T07:08:37.625Z,30.40
2018-04-15T07:09:37.703Z,30.40
2018-04-15T07:10:37.698Z,30.40
2018-04-15T07:11:37.704Z,30.40
2018-04-15T07:12:37.628Z,30.40
2018-04-15T07:13:37.701Z,30.40
2018-04-15T07:14:37.630Z,30.40
2018-04-15T07:15:37.631Z,31.99
2018-04-15T07:16:37.635Z,31.99
2018-04-15T07:17:37.703Z,31.99
2018-04-15T07:18:37.676Z,31.99
2018-04-15T07:19:37.634Z,31.99
2018-04-15T07:20:37.632Z,31.99
2018-04-15T07:21:37.639Z,31.99
2018-04-15T07:22:37.712Z,31.99
2018-04-15T07:23:37.635Z,31.99
2018-04-15T07:24:37.711Z,31.99
2018-04-15T07:25:37.638Z,32.00
2018-04-15T07:26:37.661Z,32.00
2018-04-15T07:27:37.597Z,32.00
2018-04-15T07:28:37.690Z,32.00
2018-04-15T07:29:37.602Z,32.00
2018-04-15T07:30:37.689Z,32.00
2018-04-15T07:31:37.605Z,32.00
2018-04-15T07:32:37.670Z,32.00
2018-04-15T07:33:37.704Z,32.00
2018-04-15T07:34:37.603Z,32.00
2018-04-15T07:35:37.718Z,31.30
2018-04-15T07:36:37.715Z,31.30
2018-04-15T07:37:37.714Z,31.30
2018-04-15T07:38:37.717Z,31.30
2018-04-15T07:39:37.710Z,31.30
2018-04-15T07:40:37.645Z,31.30
2018-04-15T07:41:37.685Z,31.30
2018-04-15T07:42:37.647Z,31.30
2018-04-15T07:43:37.651Z,31.30
2018-04-15T07:44:37.719Z,31.30
2018-04-15T07:45:37.688Z,30.99
2018-04-15T07:46:37.753Z,30.99
2018-04-15T07:47:37.760Z,30.99
2018-04-15T07:48:37.680Z,30.99
2018-04-15T07:49:37.719Z,30.99
2018-04-15T07:50:37.778Z,30.99
2018-04-15T07:51:37.684Z,30.99
2018-04-15T07:52:37.626Z,30.99
2018-04-15T07:53:37.764Z,30.99
2018-04-15T07:54:37.724Z,30.99
2018-04-15T07:55:37.729Z,30.70
2018-04-15T07:56:37.724Z,30.70
2018-04-15T07:57:37.632Z,30.70
2018-04-15T07:58:37.786Z,30.70
2018-04-15T07:59:37.749Z,30.70
2018-04-15T08:00:37.787Z,30.70
2018-04-15T08:01:37.695Z,30.70
2018-04-15T08:02:37.770Z,30.70
2018-04-15T08:03:37.703Z,30.70
2018-04-15T08:04:37.699Z,30.70
2018-04-15T08:05:37.668Z,29.10
2018-04-15T08:06:37.661Z,29.10
2018-04-15T08:07:37.763Z,29.10
2018-04-15T08:08:37.679Z,29.10
2018-04-15T08:09:37.739Z,29.10
2018-04-15T08:10:37.666Z,29.10
2018-04-15T08:11:37.717Z,29.10
2018-04-15T08:12:37.666Z,29.10
2018-04-15T08:13:37.678Z,29.10
2018-04-15T08:14:37.668Z,29.10
2018-04-15T08:15:37.740Z,31.80
2018-04-15T08:16:37.668Z,31.80
2018-04-15T08:17:37.627Z,31.80
2018-04-15T08:18:37.726Z,31.80
2018-04-15T08:19:37.742Z,31.80
2018-04-15T08:20:37.744Z,31.80
2018-04-15T08:21:37.673Z,31.80
2018-04-15T08:22:37.746Z,31.80
2018-04-15T08:23:37.675Z,31.80
2018-04-15T08:24:37.677Z,31.80
2018-04-15T08:25:37.669Z,31.60
2018-04-15T08:26:37.702Z,31.60
2018-04-15T08:27:37.708Z,31.60
2018-04-15T08:28:37.699Z,31.60
2018-04-15T08:29:37.746Z,31.60
2018-04-15T08:30:37.669Z,31.60
2018-04-15T08:31:37.887Z,31.60
2018-04-15T08:32:37.650Z,31.60
2018-04-15T08:33:37.652Z,31.60
2018-04-15T08:34:37.751Z,31.60
2018-04-15T08:35:37.807Z,28.80
2018-04-15T08:36:37.774Z,28.80
2018-04-15T08:37:37.727Z,28.80
2018-04-15T08:38:37.732Z,28.80
2018-04-15T08:39:37.759Z,28.80
2018-04-15T08:40:37.669Z,28.80
2018-04-15T08:41:37.718Z,28.80
2018-04-15T08:42:37.753Z,28.80
2018-04-15T08:43:37.719Z,28.80
2018-04-15T08:44:37.725Z,28.80
2018-04-15T08:45:37.726Z,25.60
2018-04-15T08:46:37.674Z,25.60
2018-04-15T08:47:37.701Z,25.60
2018-04-15T08:48:37.762Z,25.60
2018-04-15T08:49:37.756Z,25.60
2018-04-15T08:50:37.758Z,25.60
2018-04-15T08:51:37.799Z,25.60
2018-04-15T08:52:37.729Z,25.60
2018-04-15T08:53:37.841Z,25.60
2018-04-15T08:54:37.767Z,25.60
2018-04-15T08:55:37.764Z,25.70
2018-04-15T08:56:37.764Z,25.70
2018-04-15T08:57:37.703Z,25.70
2018-04-15T08:58:37.771Z,25.70
2018-04-15T08:59:37.693Z,25.70
2018-04-15T09:00:37.816Z,25.70
2018-04-15T09:01:37.700Z,25.70
2018-04-15T09:02:37.695Z,25.70
2018-04-15T09:03:37.700Z,25.70
2018-04-15T09:04:37.700Z,25.70
2018-04-15T09:05:37.731Z,22.70
2018-04-15T09:06:37.793Z,22.70
2018-04-15T09:07:37.742Z,22.70
2018-04-15T09:08:37.744Z,22.70
2018-04-15T09:09:37.745Z,22.70
2018-04-15T09:10:37.709Z,22.70
2018-04-15T09:11:37.751Z,22.70
2018-04-15T09:12:37.796Z,22.70
2018-04-15T09:13:37.728Z,22.70
2018-04-15T09:14:37.810Z,22.70
2018-04-15T09:15:37.696Z,20.90
2018-04-15T09:16:37.807Z,20.90
2018-04-15T09:17:37.782Z,20.90
2018-04-15T09:18:37.715Z,20.90
2018-04-15T09:19:37.777Z,20.90
2018-04-15T09:20:37.800Z,20.90
2018-04-15T09:21:37.777Z,20.90
2018-04-15T09:22:37.743Z,20.90
2018-04-15T09:23:37.820Z,20.90
2018-04-15T09:24:37.760Z,20.90
2018-04-15T09:25:37.786Z,13.70
2018-04-15T09:26:37.787Z,13.70
2018-04-15T09:27:37.786Z,13.70
2018-04-15T09:28:37.786Z,13.70
2018-04-15T09:29:37.757Z,13.70
2018-04-15T09:30:37.712Z,13.70
2018-04-15T09:31:37.787Z,13.70
2018-04-15T09:32:37.720Z,13.70
2018-04-15T09:33:37.720Z,13.70
2018-04-15T09:34:37.716Z,13.70
2018-04-15T09:35:37.884Z,14.90
2018-04-15T09:36:37.766Z,14.90
2018-04-15T09:37:37.809Z,14.90
2018-04-15T09:38:37.757Z,14.90
2018-04-15T09:39:37.707Z,14.90
2018-04-15T09:40:37.765Z,14.90
2018-04-15T09:41:37.761Z,14.90
2018-04-15T09:42:37.767Z,14.90
2018-04-15T09:43:37.758Z,14.90
2018-04-15T09:44:37.797Z,14.90
2018-04-15T09:45:37.786Z,15.99
2018-04-15T09:46:37.721Z,15.99
2018-04-15T09:47:37.700Z,15.99
2018-04-15T09:48:37.713Z,15.99
2018-04-15T09:49:37.757Z,15.99
2018-04-15T09:50:37.792Z,15.99
2018-04-15T09:51:37.700Z,15.99
2018-04-15T09:52:37.728Z,15.99
2018-04-15T09:53:37.794Z,15.99
2018-04-15T09:54:37.788Z,15.99
2018-04-15T09:55:37.798Z,13.80
2018-04-15T09:56:37.764Z,13.80
2018-04-15T09:57:37.812Z,13.80
2018-04-15T09:58:37.839Z,13.80
2018-04-15T09:59:37.786Z,13.80
2018-04-15T10:00:37.699Z,13.80
2018-04-15T10:01:37.832Z,13.80
2018-04-15T10:02:37.770Z,13.80
2018-04-15T10:03:37.747Z,13.80
2018-04-15T10:04:37.822Z,13.80
2018-04-15T10:05:37.765Z,12.00
2018-04-15T10:06:37.796Z,12.00
2018-04-15T10:07:37.721Z,12.00
2018-04-15T10:08:37.737Z,12.00
2018-04-15T10:09:37.696Z,12.00
2018-04-15T10:10:37.716Z,12.00
2018-04-15T10:11:37.729Z,12.00
2018-04-15T10:13:37.754Z,12.00
2018-04-15T10:14:37.803Z,12.00
2018-04-15T10:15:37.770Z,11.00
2018-04-15T10:16:37.730Z,11.00
2018-04-15T10:17:37.806Z,11.00
2018-04-15T10:18:37.804Z,11.00
2018-04-15T10:19:37.705Z,11.00
2018-04-15T10:20:37.730Z,11.00
2018-04-15T10:21:37.809Z,11.00
2018-04-15T10:22:37.807Z,11.00
2018-04-15T10:23:37.703Z,11.00
2018-04-15T10:24:37.735Z,11.00
2018-04-15T10:25:37.690Z,11.00
2018-04-15T10:26:37.773Z,11.00
2018-04-15T10:27:37.809Z,11.00
2018-04-15T10:28:37.832Z,11.00
2018-04-15T10:29:37.813Z,11.00
2018-04-15T10:30:37.712Z,11.00
2018-04-15T10:31:37.813Z,11.00
2018-04-15T10:32:37.808Z,11.00
2018-04-15T10:33:37.692Z,11.00
2018-04-15T10:34:37.757Z,11.00
2018-04-15T10:35:37.803Z,10.30
2018-04-15T10:36:37.850Z,10.30
2018-04-15T10:37:37.751Z,10.30
2018-04-15T10:38:37.743Z,10.30
2018-04-15T10:39:37.835Z,10.30
2018-04-15T10:40:37.765Z,10.30
2018-04-15T10:41:37.851Z,10.30
2018-04-15T10:42:37.744Z,10.30
2018-04-15T10:43:37.827Z,10.30
2018-04-15T10:44:37.797Z,10.30
2018-04-15T10:45:37.719Z,10.50
2018-04-15T10:46:37.763Z,10.50
2018-04-15T10:47:37.765Z,10.50
2018-04-15T10:48:37.764Z,10.50
2018-04-15T10:49:37.784Z,10.50
2018-04-15T10:50:37.837Z,10.50
2018-04-15T10:51:37.765Z,10.50
2018-04-15T10:52:37.837Z,10.50
2018-04-15T10:53:37.770Z,10.50
2018-04-15T10:54:37.872Z,10.50
2018-04-15T10:55:37.810Z,11.50
2018-04-15T10:56:37.796Z,11.50
2018-04-15T10:57:37.806Z,11.50
2018-04-15T10:58:37.873Z,11.50
2018-04-15T10:59:37.873Z,11.50
2018-04-15T11:00:37.765Z,11.50
2018-04-15T11:01:37.741Z,11.50
2018-04-15T11:02:37.820Z,11.50
2018-04-15T11:03:37.763Z,11.50
2018-04-15T11:04:37.745Z,11.50
2018-04-15T11:05:37.813Z,11.40
2018-04-15T11:06:37.770Z,11.40
2018-04-15T11:07:37.864Z,11.40
2018-04-15T11:08:37.896Z,11.40
2018-04-15T11:09:37.773Z,11.40
2018-04-15T11:10:37.872Z,11.40
2018-04-15T11:11:37.822Z,11.40
2018-04-15T11:12:37.848Z,11.40
2018-04-15T11:13:37.854Z,11.40
2018-04-15T11:14:37.874Z,11.40
2018-04-15T11:15:37.853Z,9.30
2018-04-15T11:16:37.781Z,9.30
2018-04-15T11:17:37.861Z,9.30
2018-04-15T11:18:37.791Z,9.30
2018-04-15T11:19:37.782Z,9.30
2018-04-15T11:20:37.787Z,9.30
2018-04-15T11:21:37.857Z,9.30
2018-04-15T11:22:37.787Z,9.30
2018-04-15T11:23:37.752Z,9.30
2018-04-15T11:24:37.858Z,9.30
2018-04-15T11:25:37.802Z,8.10
2018-04-15T11:26:37.885Z,8.10
2018-04-15T11:27:37.883Z,8.10
2018-04-15T11:28:37.890Z,8.10
2018-04-15T11:29:37.851Z,8.10
2018-04-15T11:30:37.859Z,8.10
2018-04-15T11:31:37.815Z,8.10
2018-04-15T11:32:37.857Z,8.10
2018-04-15T11:33:37.836Z,8.10
2018-04-15T11:34:37.779Z,8.10
2018-04-15T11:35:37.795Z,7.20
2018-04-15T11:36:37.913Z,7.20
2018-04-15T11:37:37.870Z,7.20
2018-04-15T11:38:37.797Z,7.20
2018-04-15T11:39:37.867Z,7.20
2018-04-15T11:40:37.796Z,7.20
2018-04-15T11:41:37.860Z,7.20
2018-04-15T11:42:37.798Z,7.20
2018-04-15T11:43:37.880Z,7.20
2018-04-15T11:44:37.868Z,7.20
2018-04-15T11:45:37.802Z,7.20
2018-04-15T11:46:37.853Z,7.20
2018-04-15T11:47:37.852Z,7.20
2018-04-15T11:48:37.847Z,7.20
2018-04-15T11:49:37.743Z,7.20
2018-04-15T11:50:37.854Z,7.20
2018-04-15T11:51:37.844Z,7.20
2018-04-15T11:52:37.761Z,7.20
2018-04-15T11:53:37.760Z,7.20
2018-04-15T11:54:37.734Z,7.20
2018-04-15T11:55:37.774Z,5.60
2018-04-15T11:56:37.833Z,5.60
2018-04-15T11:57:37.827Z,5.60
2018-04-15T11:58:37.909Z,5.60
2018-04-15T11:59:37.797Z,5.60
2018-04-15T12:00:37.899Z,5.60
2018-04-15T12:01:37.834Z,5.60
2018-04-15T12:02:37.918Z,5.60
2018-04-15T12:03:37.836Z,5.60
2018-04-15T12:04:37.912Z,5.60
2018-04-15T12:05:37.836Z,5.60
2018-04-15T12:06:37.845Z,4.10
2018-04-15T12:07:37.834Z,4.10
2018-04-15T12:08:37.909Z,4.10
2018-04-15T12:09:37.960Z,4.10
2018-04-15T12:10:37.901Z,4.10
2018-04-15T12:11:37.895Z,4.10
2018-04-15T12:12:37.883Z,4.10
2018-04-15T12:13:37.788Z,4.10
2018-04-15T12:14:37.901Z,4.10
2018-04-15T12:15:37.852Z,4.10
2018-04-15T12:16:37.847Z,3.80
2018-04-15T12:17:37.909Z,3.80
2018-04-15T12:18:37.852Z,3.80
2018-04-15T12:19:37.881Z,3.80
2018-04-15T12:20:37.889Z,3.80
2018-04-15T12:21:37.919Z,3.80
2018-04-15T12:22:37.849Z,3.80
2018-04-15T12:23:37.891Z,3.80
2018-04-15T12:24:37.911Z,3.80
2018-04-15T12:25:37.919Z,3.80
2018-04-15T12:26:37.855Z,3.70
2018-04-15T12:27:37.850Z,3.70
2018-04-15T12:28:37.854Z,3.70
2018-04-15T12:29:37.896Z,3.70
2018-04-15T12:30:37.927Z,3.70
2018-04-15T12:31:37.871Z,3.70
2018-04-15T12:32:37.919Z,3.70
2018-04-15T12:33:37.991Z,3.70
2018-04-15T12:34:37.810Z,3.70
2018-04-15T12:35:37.918Z,3.70
2018-04-15T12:36:37.898Z,3.30
2018-04-15T12:37:37.803Z,3.30
2018-04-15T12:38:37.926Z,3.30
2018-04-15T12:39:37.938Z,3.30
2018-04-15T12:40:37.822Z,3.30
2018-04-15T12:41:37.868Z,3.30
2018-04-15T12:42:37.829Z,3.30
2018-04-15T12:43:37.933Z,3.30
2018-04-15T12:44:37.884Z,3.30
2018-04-15T12:45:37.841Z,3.30
2018-04-15T12:46:37.912Z,3.20
2018-04-15T12:47:37.840Z,3.20
2018-04-15T12:48:37.915Z,3.20
2018-04-15T12:49:37.841Z,3.20
2018-04-15T12:50:37.867Z,3.20
2018-04-15T12:51:37.842Z,3.20
2018-04-15T12:52:37.845Z,3.20
2018-04-15T12:53:37.998Z,3.20
2018-04-15T12:54:37.920Z,3.20
2018-04-15T12:55:37.849Z,3.20
2018-04-15T12:56:37.870Z,4.30
2018-04-15T12:57:37.937Z,4.30